createdAt,value
2023-05-27T00:00:01.091Z,101497.13
2023-05-27T00:02:51.939Z,101497.24
2023-05-27T00:05:22.728Z,101493.57
2023-05-27T00:07:53.580Z,101496.40
2023-05-27T00:10:24.425Z,101497.24
2023-05-27T00:12:55.310Z,101498.23
2023-05-27T00:15:25.979Z,101495.41
2023-05-27T00:17:57.262Z,101496.59
2023-05-27T00:20:28.444Z,101498.73
2023-05-27T00:23:00.396Z,101496.38
2023-05-27T00:25:31.161Z,101494.84
2023-05-27T00:28:02.673Z,101496.74
2023-05-27T00:30:33.644Z,101494.05
2023-05-27T00:33:04.525Z,101489.79
2023-05-27T00:35:35.348Z,101485.21
2023-05-27T00:38:07.884Z,101485.59
2023-05-27T00:40:38.653Z,101487.95
2023-05-27T00:43:09.409Z,101488.13
2023-05-27T00:45:40.531Z,101488.09
2023-05-27T00:48:12.006Z,101494.33
2023-05-27T00:50:43.109Z,101494.62
2023-05-27T00:53:14.094Z,101493.88
2023-05-27T00:55:45.019Z,101498.94
2023-05-27T00:58:16.050Z,101498.77
2023-05-27T01:00:46.888Z,101501.01
2023-05-27T01:03:18.848Z,101504.33
2023-05-27T01:05:50.222Z,101502.58
2023-05-27T01:08:28.348Z,101498.84
2023-05-27T01:10:59.588Z,101500.79
2023-05-27T01:13:37.592Z,101499.42
2023-05-27T01:16:14.359Z,101501.03
2023-05-27T01:18:48.025Z,101496.09
2023-05-27T01:21:20.104Z,101495.66
2023-05-27T01:23:53.240Z,101498.73
2023-05-27T01:26:24.102Z,101492.55
2023-05-27T01:28:54.876Z,101494.70
2023-05-27T01:31:33.841Z,101491.16
2023-05-27T01:34:10.201Z,101490.20
2023-05-27T01:36:47.664Z,101489.19
2023-05-27T01:39:20.078Z,101489.77
2023-05-27T01:41:50.047Z,101486.66
2023-05-27T01:44:22.673Z,101487.09
2023-05-27T01:46:53.997Z,101480.91
2023-05-27T01:49:24.909Z,101483.57
2023-05-27T01:51:56.889Z,101481.30
2023-05-27T01:54:27.738Z,101473.38
2023-05-27T01:56:58.654Z,101473.05
2023-05-27T01:59:29.382Z,101472.91
2023-05-27T02:02:01.233Z,101472.31
2023-05-27T02:04:32.386Z,101476.67
2023-05-27T02:07:04.349Z,101468.98
2023-05-27T02:09:35.149Z,101469.20
2023-05-27T02:12:07.545Z,101469.13
2023-05-27T02:14:39.663Z,101462.40
2023-05-27T02:17:10.476Z,101467.99
2023-05-27T02:19:41.384Z,101467.67
2023-05-27T02:22:15.256Z,101469.39
2023-05-27T02:24:46.273Z,101466.77
2023-05-27T02:27:18.733Z,101465.06
2023-05-27T02:29:49.684Z,101464.61
2023-05-27T02:32:21.191Z,101467.92
2023-05-27T02:34:52.189Z,101466.92
2023-05-27T02:37:23.116Z,101472.21
2023-05-27T02:39:57.559Z,101475.92
2023-05-27T02:42:29.032Z,101481.23
2023-05-27T02:44:59.940Z,101479.41
2023-05-27T02:47:31.030Z,101476.27
2023-05-27T02:50:01.874Z,101477.94
2023-05-27T02:52:33.644Z,101478.31
2023-05-27T02:55:04.521Z,101477.30
2023-05-27T02:57:36.221Z,101475.90
2023-05-27T03:00:10.092Z,101475.01
2023-05-27T03:02:40.821Z,101473.58
2023-05-27T03:05:12.341Z,101478.77
2023-05-27T03:07:43.109Z,101478.28
2023-05-27T03:10:14.250Z,101481.02
2023-05-27T03:12:45.064Z,101477.48
2023-05-27T03:15:16.365Z,101480.60
2023-05-27T03:17:47.176Z,101482.32
2023-05-27T03:20:20.177Z,101486.85
2023-05-27T03:22:51.176Z,101485.46
2023-05-27T03:25:22.054Z,101488.19
2023-05-27T03:27:53.977Z,101488.50
2023-05-27T03:30:24.904Z,101488.02
2023-05-27T03:32:56.931Z,101484.57
2023-05-27T03:35:34.808Z,101484.27
2023-05-27T03:38:06.113Z,101484.67
2023-05-27T03:40:37.530Z,101483.55
2023-05-27T03:43:11.100Z,101488.99
2023-05-27T03:45:42.067Z,101492.45
2023-05-27T03:48:13.026Z,101491.16
2023-05-27T03:50:43.986Z,101492.54
2023-05-27T03:53:14.956Z,101494.75
2023-05-27T03:55:47.181Z,101492.36
2023-05-27T03:58:18.094Z,101491.95
2023-05-27T04:00:50.177Z,101491.14
2023-05-27T04:03:21.242Z,101488.23
2023-05-27T04:05:54.202Z,101490.02
2023-05-27T04:08:27.300Z,101491.95
2023-05-27T04:10:58.127Z,101491.85
2023-05-27T04:13:29.473Z,101489.89
2023-05-27T04:16:00.633Z,101494.16
2023-05-27T04:18:31.438Z,101496.15
2023-05-27T04:21:02.284Z,101492.89
2023-05-27T04:23:33.091Z,101494.30
2023-05-27T04:26:06.433Z,101492.83
2023-05-27T04:28:40.164Z,101492.39
2023-05-27T04:31:13.351Z,101492.73
2023-05-27T04:33:48.172Z,101487.11
2023-05-27T04:36:19.293Z,101498.63
2023-05-27T04:39:00.365Z,101501.06
2023-05-27T04:41:31.288Z,101499.91
2023-05-27T04:44:04.739Z,101501.78
2023-05-27T04:46:40.190Z,101499.83
2023-05-27T04:49:11.521Z,101498.88
2023-05-27T04:51:42.547Z,101504.48
2023-05-27T04:54:13.837Z,101497.58
2023-05-27T04:56:45.934Z,101499.19
2023-05-27T04:59:22.930Z,101501.77
2023-05-27T05:02:12.077Z,101495.66
2023-05-27T05:04:56.400Z,101498.61
2023-05-27T05:07:27.695Z,101493.80
2023-05-27T05:09:59.656Z,101494.30
2023-05-27T05:12:36.342Z,101492.38
2023-05-27T05:15:09.380Z,101493.92
2023-05-27T05:17:40.416Z,101497.62
2023-05-27T05:20:13.691Z,101495.19
2023-05-27T05:22:46.846Z,101498.56
2023-05-27T05:25:17.604Z,101500.31
2023-05-27T05:27:53.023Z,101495.69
2023-05-27T05:30:23.862Z,101498.23
2023-05-27T05:32:57.142Z,101497.60
2023-05-27T05:35:29.654Z,101498.30
2023-05-27T05:38:07.359Z,101497.96
2023-05-27T05:40:38.323Z,101501.56
2023-05-27T05:43:19.739Z,101501.61
2023-05-27T05:45:50.773Z,101498.34
2023-05-27T05:48:22.858Z,101499.95
2023-05-27T05:50:53.917Z,101501.61
2023-05-27T05:53:25.225Z,101502.26
2023-05-27T05:55:56.949Z,101504.15
2023-05-27T05:58:28.095Z,101506.64
2023-05-27T06:01:00.190Z,101513.02
2023-05-27T06:03:36.984Z,101514.36
2023-05-27T06:06:16.202Z,101515.96
2023-05-27T06:08:59.488Z,101515.56
2023-05-27T06:11:30.176Z,101513.83
2023-05-27T06:14:01.005Z,101516.77
2023-05-27T06:16:31.838Z,101515.60
2023-05-27T06:19:03.046Z,101517.02
2023-05-27T06:21:34.977Z,101517.13
2023-05-27T06:24:28.630Z,101515.21
2023-05-27T06:27:08.913Z,101516.92
2023-05-27T06:29:39.936Z,101513.26
2023-05-27T06:32:11.355Z,101515.16
2023-05-27T06:34:42.287Z,101508.69
2023-05-27T06:37:13.036Z,101509.89
2023-05-27T06:39:43.828Z,101513.46
2023-05-27T06:42:15.365Z,101507.23
2023-05-27T06:44:51.664Z,101507.20
2023-05-27T06:47:25.349Z,101506.41
2023-05-27T06:49:56.918Z,101502.48
2023-05-27T06:52:27.823Z,101507.48
2023-05-27T06:55:27.020Z,101506.77
2023-05-27T06:58:16.648Z,101503.04
2023-05-27T07:00:55.621Z,101499.14
2023-05-27T07:03:55.881Z,101504.31
2023-05-27T07:06:33.678Z,101501.66
2023-05-27T07:09:04.347Z,101501.36
2023-05-27T07:11:38.164Z,101502.77
2023-05-27T07:14:12.742Z,101496.98
2023-05-27T07:16:45.568Z,101499.39
2023-05-27T07:19:15.177Z,101502.77
2023-05-27T07:21:51.281Z,101502.90
2023-05-27T07:24:24.279Z,101498.02
2023-05-27T07:26:56.184Z,101494.82
2023-05-27T07:29:27.415Z,101490.45
2023-05-27T07:31:58.117Z,101492.08
2023-05-27T07:34:31.627Z,101487.90
2023-05-27T07:37:02.742Z,101489.55
2023-05-27T07:39:34.143Z,101483.00
2023-05-27T07:42:06.383Z,101486.79
2023-05-27T07:44:37.331Z,101487.04
2023-05-27T07:47:08.723Z,101486.62
2023-05-27T07:49:40.942Z,101487.11
2023-05-27T07:52:34.713Z,101491.98
2023-05-27T07:55:09.204Z,101492.52
2023-05-27T07:57:39.984Z,101484.86
2023-05-27T08:00:18.801Z,101480.61
2023-05-27T08:02:58.937Z,101479.19
2023-05-27T08:05:53.445Z,101469.97
2023-05-27T08:08:50.199Z,101468.83
2023-05-27T08:11:43.802Z,101467.20
2023-05-27T08:14:44.722Z,101457.92
2023-05-27T08:17:35.371Z,101462.91
2023-05-27T08:20:26.940Z,101455.80
2023-05-27T08:23:16.661Z,101454.73
2023-05-27T08:25:55.329Z,101455.21
2023-05-27T08:28:38.284Z,101451.13
2023-05-27T08:31:44.247Z,101445.31
2023-05-27T08:34:15.233Z,101443.64
2023-05-27T08:36:46.037Z,101444.73
2023-05-27T08:39:16.994Z,101441.80
2023-05-27T08:41:56.124Z,101442.11
2023-05-27T08:44:27.211Z,101438.47
2023-05-27T08:47:06.248Z,101436.27
2023-05-27T08:49:37.350Z,101431.81
2023-05-27T08:52:12.131Z,101435.13
2023-05-27T08:54:44.804Z,101428.23
2023-05-27T08:57:17.574Z,101426.52
2023-05-27T08:59:49.067Z,101420.34
2023-05-27T09:02:22.540Z,101418.52
2023-05-27T09:04:53.914Z,101416.07
2023-05-27T09:07:26.471Z,101411.97
2023-05-27T09:10:00.975Z,101410.71
2023-05-27T09:12:31.680Z,101407.02
2023-05-27T09:15:02.733Z,101405.75
2023-05-27T09:17:33.891Z,101403.19
2023-05-27T09:20:08.197Z,101397.48
2023-05-27T09:22:39.397Z,101396.02
2023-05-27T09:25:13.009Z,101389.48
2023-05-27T09:27:46.914Z,101392.71
2023-05-27T09:30:21.712Z,101390.02
2023-05-27T09:32:52.946Z,101397.55
2023-05-27T09:35:23.571Z,101399.08
2023-05-27T09:37:54.252Z,101394.42
2023-05-27T09:40:24.896Z,101397.06
2023-05-27T09:42:55.784Z,101394.69
2023-05-27T09:45:26.808Z,101387.70
2023-05-27T09:47:58.720Z,101381.73
2023-05-27T09:50:28.192Z,101376.60
2023-05-27T09:53:10.987Z,101383.38
2023-05-27T09:55:43.669Z,101377.62
2023-05-27T09:58:13.088Z,101375.52
2023-05-27T10:00:46.584Z,101373.27
2023-05-27T10:03:19.066Z,101365.54
2023-05-27T10:05:51.859Z,101361.05
2023-05-27T10:08:25.977Z,101358.39
2023-05-27T10:11:15.050Z,101351.25
2023-05-27T10:13:45.741Z,101346.66
2023-05-27T10:16:24.097Z,101341.70
2023-05-27T10:18:58.541Z,101341.27
2023-05-27T10:21:33.474Z,101342.38
2023-05-27T10:24:06.177Z,101349.44
2023-05-27T10:26:39.035Z,101346.56
2023-05-27T10:29:11.894Z,101347.15
2023-05-27T10:31:52.060Z,101343.23
2023-05-27T10:34:23.781Z,101342.55
2023-05-27T10:37:03.233Z,101343.08
2023-05-27T10:39:34.044Z,101340.71
2023-05-27T10:42:05.226Z,101340.67
2023-05-27T10:44:40.467Z,101339.71
2023-05-27T10:47:15.564Z,101337.59
2023-05-27T10:49:49.831Z,101332.98
2023-05-27T10:52:21.290Z,101329.80
2023-05-27T10:54:53.554Z,101327.14
2023-05-27T10:57:25.355Z,101329.65
2023-05-27T10:59:59.579Z,101326.11
2023-05-27T11:02:33.709Z,101324.30
2023-05-27T11:05:09.889Z,101323.56
2023-05-27T11:07:42.278Z,101319.02
2023-05-27T11:10:14.513Z,101316.98
2023-05-27T11:12:49.583Z,101319.79
2023-05-27T11:15:22.196Z,101312.94
2023-05-27T11:17:53.085Z,101304.19
2023-05-27T11:20:24.025Z,101308.48
2023-05-27T11:22:55.216Z,101300.30
2023-05-27T11:25:26.323Z,101290.52
2023-05-27T11:27:57.085Z,101289.63
2023-05-27T11:30:28.884Z,101286.66
2023-05-27T11:33:05.279Z,101281.38
2023-05-27T11:35:37.068Z,101276.02
2023-05-27T11:38:18.369Z,101276.20
2023-05-27T11:40:49.729Z,101278.09
2023-05-27T11:43:22.191Z,101270.28
2023-05-27T11:45:53.296Z,101274.88
2023-05-27T11:48:25.081Z,101274.17
2023-05-27T11:50:55.730Z,101269.33
2023-05-27T11:53:29.879Z,101268.04
2023-05-27T11:56:00.700Z,101255.65
2023-05-27T11:58:31.458Z,101253.87
2023-05-27T12:01:02.837Z,101244.34
2023-05-27T12:03:35.888Z,101242.83
2023-05-27T12:06:07.358Z,101235.42
2023-05-27T12:08:39.295Z,101233.86
2023-05-27T12:11:13.527Z,101231.59
2023-05-27T12:13:44.644Z,101227.25
2023-05-27T12:16:15.981Z,101225.85
2023-05-27T12:18:49.437Z,101230.44
2023-05-27T12:21:21.713Z,101230.56
2023-05-27T12:23:53.002Z,101224.44
2023-05-27T12:26:25.355Z,101223.49
2023-05-27T12:28:58.091Z,101215.31
2023-05-27T12:31:29.626Z,101207.21
2023-05-27T12:34:00.465Z,101209.53
2023-05-27T12:36:31.137Z,101206.58
2023-05-27T12:39:19.766Z,101197.50
2023-05-27T12:41:58.019Z,101205.22
2023-05-27T12:44:31.724Z,101207.80
2023-05-27T12:47:02.481Z,101200.27
2023-05-27T12:49:33.809Z,101198.06
2023-05-27T12:52:04.514Z,101199.91
2023-05-27T12:54:37.197Z,101188.98
2023-05-27T12:57:08.780Z,101185.65
2023-05-27T12:59:42.502Z,101177.72
2023-05-27T13:02:13.211Z,101179.94
2023-05-27T13:04:45.354Z,101182.72
2023-05-27T13:07:16.439Z,101177.84
2023-05-27T13:09:47.358Z,101176.53
2023-05-27T13:12:18.020Z,101173.56
2023-05-27T13:14:48.738Z,101174.11
2023-05-27T13:17:19.646Z,101170.02
2023-05-27T13:19:51.441Z,101165.50
2023-05-27T13:22:22.496Z,101160.81
2023-05-27T13:24:53.413Z,101160.51
2023-05-27T13:27:24.137Z,101151.02
2023-05-27T13:29:54.839Z,101157.87
2023-05-27T13:32:25.852Z,101156.10
2023-05-27T13:34:57.215Z,101151.29
2023-05-27T13:37:28.131Z,101153.02
2023-05-27T13:39:59.486Z,101146.43
2023-05-27T13:42:30.188Z,101141.83
2023-05-27T13:45:01.012Z,101137.98
2023-05-27T13:47:32.417Z,101135.98
2023-05-27T13:50:03.316Z,101130.48
2023-05-27T13:52:34.098Z,101129.09
2023-05-27T13:55:06.191Z,101127.07
2023-05-27T13:57:36.824Z,101123.79
2023-05-27T14:00:09.370Z,101123.04
2023-05-27T14:02:40.027Z,101121.38
2023-05-27T14:05:12.526Z,101116.48
2023-05-27T14:07:47.391Z,101114.69
2023-05-27T14:10:18.176Z,101117.45
2023-05-27T14:12:49.089Z,101113.20
2023-05-27T14:15:19.829Z,101110.30
2023-05-27T14:17:50.547Z,101102.13
2023-05-27T14:20:22.014Z,101101.30
2023-05-27T14:22:52.917Z,101105.10
2023-05-27T14:25:24.874Z,101099.37
2023-05-27T14:27:56.075Z,101099.48
2023-05-27T14:30:28.242Z,101091.69
2023-05-27T14:33:02.940Z,101092.22
2023-05-27T14:35:34.008Z,101084.04
2023-05-27T14:38:05.518Z,101084.31
2023-05-27T14:40:36.534Z,101079.05
2023-05-27T14:43:07.520Z,101081.92
2023-05-27T14:45:38.254Z,101080.62
2023-05-27T14:48:09.552Z,101076.77
2023-05-27T14:50:40.323Z,101070.40
2023-05-27T14:53:11.034Z,101068.73
2023-05-27T14:55:41.763Z,101068.55
2023-05-27T14:58:12.684Z,101073.41
2023-05-27T15:00:43.428Z,101067.50
2023-05-27T15:03:14.290Z,101069.34
2023-05-27T15:05:45.054Z,101060.92
2023-05-27T15:08:17.048Z,101054.16
2023-05-27T15:10:46.915Z,101052.17
2023-05-27T15:13:18.304Z,101049.21
2023-05-27T15:15:50.347Z,101052.63
2023-05-27T15:18:21.739Z,101051.84
2023-05-27T15:20:52.655Z,101048.66
2023-05-27T15:23:23.519Z,101047.03
2023-05-27T15:25:54.988Z,101049.91
2023-05-27T15:28:26.470Z,101044.14
2023-05-27T15:30:57.483Z,101041.95
2023-05-27T15:33:28.304Z,101037.80
2023-05-27T15:35:59.003Z,101042.84
2023-05-27T15:38:29.861Z,101038.54
2023-05-27T15:41:00.527Z,101032.52
2023-05-27T15:43:31.308Z,101026.64
2023-05-27T15:46:05.390Z,101030.45
2023-05-27T15:48:36.725Z,101025.91
2023-05-27T15:51:08.104Z,101020.74
2023-05-27T15:53:38.722Z,101019.85
2023-05-27T15:56:09.647Z,101021.88
2023-05-27T15:58:40.409Z,101012.71
2023-05-27T16:01:11.274Z,101012.59
2023-05-27T16:03:42.073Z,101008.86
2023-05-27T16:06:12.834Z,101007.30
2023-05-27T16:08:43.590Z,101006.38
2023-05-27T16:11:14.434Z,101004.81
2023-05-27T16:13:45.203Z,101007.54
2023-05-27T16:16:15.887Z,101002.13
2023-05-27T16:18:46.626Z,100997.70
2023-05-27T16:21:17.676Z,101002.25
2023-05-27T16:23:59.414Z,100995.86
2023-05-27T16:26:37.655Z,100992.73
2023-05-27T16:29:08.399Z,100985.26
2023-05-27T16:31:39.288Z,100986.66
2023-05-27T16:34:10.346Z,100987.45
2023-05-27T16:36:41.080Z,100984.34
2023-05-27T16:39:11.735Z,100984.39
2023-05-27T16:41:42.421Z,100979.98
2023-05-27T16:44:13.277Z,100980.22
2023-05-27T16:46:44.084Z,100975.13
2023-05-27T16:49:14.805Z,100977.05
2023-05-27T16:51:45.997Z,100974.13
2023-05-27T16:54:16.752Z,100974.67
2023-05-27T16:56:47.748Z,100970.53
2023-05-27T16:59:18.436Z,100961.80
2023-05-27T17:01:49.323Z,100960.77
2023-05-27T17:04:20.008Z,100959.77
2023-05-27T17:06:50.789Z,100957.42
2023-05-27T17:09:21.745Z,100958.63
2023-05-27T17:11:52.441Z,100957.25
2023-05-27T17:14:23.512Z,100954.14
2023-05-27T17:16:54.267Z,100954.91
2023-05-27T17:19:25.019Z,100950.39
2023-05-27T17:21:56.000Z,100948.56
2023-05-27T17:24:26.734Z,100943.58
2023-05-27T17:26:57.504Z,100945.00
2023-05-27T17:29:28.309Z,100943.67
2023-05-27T17:31:59.077Z,100946.77
2023-05-27T17:34:30.532Z,100951.64
2023-05-27T17:37:01.512Z,100952.66
2023-05-27T17:39:32.676Z,100953.30
2023-05-27T17:42:03.442Z,100954.07
2023-05-27T17:44:34.261Z,100954.84
2023-05-27T17:47:05.324Z,100955.85
2023-05-27T17:49:36.036Z,100951.59
2023-05-27T17:52:20.385Z,100950.47
2023-05-27T17:54:52.505Z,100950.13
2023-05-27T17:57:23.420Z,100951.38
2023-05-27T17:59:54.250Z,100949.36
2023-05-27T18:02:25.124Z,100946.47
2023-05-27T18:04:55.807Z,100942.90
2023-05-27T18:07:26.483Z,100942.45
2023-05-27T18:09:57.113Z,100942.04
2023-05-27T18:12:27.697Z,100938.86
2023-05-27T18:14:58.608Z,100942.02
2023-05-27T18:17:29.363Z,100940.12
2023-05-27T18:20:00.779Z,100937.11
2023-05-27T18:22:31.633Z,100939.39
2023-05-27T18:25:02.472Z,100937.48
2023-05-27T18:27:33.226Z,100936.79
2023-05-27T18:30:04.083Z,100933.88
2023-05-27T18:32:45.893Z,100935.34
2023-05-27T18:35:30.522Z,100929.73
2023-05-27T18:38:02.609Z,100931.03
2023-05-27T18:40:34.885Z,100932.44
2023-05-27T18:43:06.452Z,100931.36
2023-05-27T18:45:55.981Z,100933.02
2023-05-27T18:48:28.266Z,100941.02
2023-05-27T18:51:00.101Z,100936.48
2023-05-27T18:53:31.527Z,100940.16
2023-05-27T18:56:02.280Z,100939.63
2023-05-27T18:58:34.555Z,100938.95
2023-05-27T19:01:05.389Z,100942.25
2023-05-27T19:03:36.194Z,100938.79
2023-05-27T19:06:07.181Z,100940.38
2023-05-27T19:08:37.931Z,100936.33
2023-05-27T19:11:08.790Z,100938.96
2023-05-27T19:13:39.409Z,100941.09
2023-05-27T19:16:10.488Z,100941.61
2023-05-27T19:18:41.287Z,100940.10
2023-05-27T19:21:12.357Z,100942.42
2023-05-27T19:23:43.263Z,100945.52
2023-05-27T19:26:14.309Z,100946.02
2023-05-27T19:28:45.858Z,100947.33
2023-05-27T19:31:16.698Z,100951.23
2023-05-27T19:33:48.577Z,100952.48
2023-05-27T19:36:19.572Z,100948.75
2023-05-27T19:38:50.541Z,100951.13
2023-05-27T19:41:21.335Z,100948.50
2023-05-27T19:43:52.029Z,100946.21
2023-05-27T19:46:23.064Z,100945.70
2023-05-27T19:48:54.084Z,100946.55
2023-05-27T19:51:24.874Z,100945.81
2023-05-27T19:53:59.643Z,100943.34
2023-05-27T19:56:30.586Z,100944.02
2023-05-27T19:59:01.778Z,100947.81
2023-05-27T20:01:32.503Z,100948.90
2023-05-27T20:04:03.374Z,100948.40
2023-05-27T20:06:34.906Z,100947.48
2023-05-27T20:09:06.060Z,100947.59
2023-05-27T20:11:36.730Z,100939.40
2023-05-27T20:14:08.381Z,100939.98
2023-05-27T20:16:39.354Z,100944.23
2023-05-27T20:19:10.044Z,100941.82
2023-05-27T20:21:40.728Z,100942.41
2023-05-27T20:24:11.478Z,100945.68
2023-05-27T20:26:42.965Z,100952.36
2023-05-27T20:29:13.655Z,100955.16
2023-05-27T20:31:44.474Z,100956.05
2023-05-27T20:34:15.155Z,100955.16
2023-05-27T20:36:45.922Z,100958.07
2023-05-27T20:39:16.709Z,100953.45
2023-05-27T20:41:47.411Z,100955.30
2023-05-27T20:44:18.219Z,100954.81
2023-05-27T20:46:49.066Z,100952.92
2023-05-27T20:49:19.924Z,100951.93
2023-05-27T20:51:50.860Z,100951.43
2023-05-27T20:54:21.704Z,100955.20
2023-05-27T20:56:52.357Z,100951.44
2023-05-27T20:59:23.309Z,100953.98
2023-05-27T21:01:54.177Z,100949.55
2023-05-27T21:04:25.028Z,100954.80
2023-05-27T21:06:55.785Z,100957.92
2023-05-27T21:09:26.497Z,100954.71
2023-05-27T21:11:57.164Z,100958.02
2023-05-27T21:14:28.021Z,100958.32
2023-05-27T21:16:58.773Z,100959.50
2023-05-27T21:19:29.724Z,100961.34
2023-05-27T21:22:00.655Z,100960.34
2023-05-27T21:24:31.471Z,100958.39
2023-05-27T21:27:03.213Z,100953.70
2023-05-27T21:29:33.866Z,100955.95
2023-05-27T21:32:04.622Z,100952.18
2023-05-27T21:34:35.393Z,100953.18
2023-05-27T21:37:06.426Z,100951.40
2023-05-27T21:39:37.346Z,100950.61
2023-05-27T21:42:08.928Z,100949.30
2023-05-27T21:44:39.575Z,100947.52
2023-05-27T21:47:10.570Z,100948.66
2023-05-27T21:49:41.365Z,100955.05
2023-05-27T21:52:12.230Z,100951.27
2023-05-27T21:54:42.970Z,100952.23
2023-05-27T21:57:13.765Z,100950.23
2023-05-27T21:59:44.425Z,100950.11
2023-05-27T22:02:15.235Z,100948.27
2023-05-27T22:04:46.486Z,100952.00
2023-05-27T22:07:17.259Z,100951.12
2023-05-27T22:09:47.919Z,100953.71
2023-05-27T22:12:18.815Z,100952.14
2023-05-27T22:14:49.765Z,100947.16
2023-05-27T22:17:20.532Z,100943.57
2023-05-27T22:19:51.208Z,100946.29
2023-05-27T22:22:22.819Z,100944.69
2023-05-27T22:24:53.625Z,100946.88
2023-05-27T22:27:24.361Z,100950.39
2023-05-27T22:29:55.188Z,100948.11
2023-05-27T22:32:25.995Z,100946.34
2023-05-27T22:34:56.721Z,100945.02
2023-05-27T22:37:27.529Z,100943.88
2023-05-27T22:39:58.589Z,100940.16
2023-05-27T22:42:29.522Z,100942.81
2023-05-27T22:45:00.221Z,100940.77
2023-05-27T22:47:30.973Z,100935.99
2023-05-27T22:50:02.011Z,100934.61
2023-05-27T22:52:32.934Z,100930.94
2023-05-27T22:55:03.607Z,100929.20
2023-05-27T22:57:34.459Z,100930.09
2023-05-27T23:00:06.639Z,100930.69
2023-05-27T23:02:37.500Z,100922.23
2023-05-27T23:05:09.568Z,100921.62
2023-05-27T23:07:40.555Z,100924.73
2023-05-27T23:10:13.149Z,100927.04
2023-05-27T23:12:43.870Z,100924.73
2023-05-27T23:15:14.600Z,100919.55
2023-05-27T23:17:45.492Z,100921.08
2023-05-27T23:20:16.449Z,100919.64
2023-05-27T23:22:47.120Z,100918.57
2023-05-27T23:25:18.173Z,100917.52
2023-05-27T23:27:48.873Z,100915.69
2023-05-27T23:30:19.647Z,100917.83
2023-05-27T23:32:51.606Z,100917.70
2023-05-27T23:35:23.577Z,100913.94
2023-05-27T23:37:54.560Z,100913.44
2023-05-27T23:40:25.557Z,100908.40
2023-05-27T23:42:56.206Z,100905.89
2023-05-27T23:45:26.861Z,100901.84
2023-05-27T23:47:57.531Z,100900.52
2023-05-27T23:50:28.227Z,100902.71
2023-05-27T23:52:58.903Z,100906.17
2023-05-27T23:55:29.643Z,100901.32
2023-05-27T23:58:00.480Z,100902.77
